Time;durP1;ratioP1;P1;durP2;ratioP2;P2;SDS_P1;SDS_P2;PMS_P1;PMS_P2;Temp;Humidity;BMP_temperature;BMP_pressure;BME280_temperature;BME280_humidity;BME280_pressure;Samples;Min_cycle;Max_cycle;Signal;HPM_P1;HPM_P2
2021/12/07 00:00:27;;;;;;;35.72;15.20;;;2.90;99.90;;;;;;4936265;29;20039;-87
2021/12/07 00:02:52;;;;;;;33.20;15.82;;;2.90;99.90;;;;;;4936720;29;20095;-86
2021/12/07 00:05:18;;;;;;;39.42;15.75;;;2.80;99.90;;;;;;4911957;29;20035;-85
2021/12/07 00:07:45;;;;;;;31.67;15.07;;;2.90;99.90;;;;;;4924687;29;20043;-86
2021/12/07 00:10:13;;;;;;;33.90;15.45;;;2.90;99.90;;;;;;4924507;29;20072;-86
2021/12/07 00:12:43;;;;;;;33.20;14.73;;;2.80;99.90;;;;;;4915655;29;20046;-86
2021/12/07 00:15:13;;;;;;;32.55;15.00;;;2.80;99.90;;;;;;4941033;29;20044;-86
2021/12/07 00:17:40;;;;;;;32.67;14.45;;;2.90;99.90;;;;;;4908924;29;20051;-85
2021/12/07 00:20:15;;;;;;;29.75;15.52;;;2.90;99.90;;;;;;4924415;29;20021;-86
2021/12/07 00:22:43;;;;;;;29.35;13.90;;;2.90;99.90;;;;;;4925005;29;20035;-85
2021/12/07 00:25:10;;;;;;;34.83;15.43;;;2.90;99.90;;;;;;4915505;29;20040;-87
2021/12/07 00:27:36;;;;;;;30.17;14.85;;;2.80;99.90;;;;;;4931000;29;20052;-85
2021/12/07 00:30:05;;;;;;;32.35;15.07;;;2.80;99.90;;;;;;4914663;29;20039;-87
2021/12/07 00:32:31;;;;;;;29.80;14.13;;;2.90;99.90;;;;;;4932722;29;20040;-85
2021/12/07 00:35:33;;;;;;;33.35;15.00;;;2.80;99.90;;;;;;4933058;29;20032;-86
2021/12/07 00:38:05;;;;;;;36.53;15.68;;;2.90;99.90;;;;;;4931917;29;20032;-86
2021/12/07 00:40:33;;;;;;;33.78;14.07;;;2.90;99.90;;;;;;4893979;29;20492;-85
2021/12/07 00:42:59;;;;;;;34.50;15.52;;;2.90;99.90;;;;;;4925165;29;20067;-87
2021/12/07 00:45:25;;;;;;;37.08;15.63;;;2.90;99.90;;;;;;4908406;29;20098;-86
2021/12/07 00:47:54;;;;;;;34.63;14.48;;;2.90;99.90;;;;;;4925413;29;20033;-86
2021/12/07 00:50:22;;;;;;;30.63;14.57;;;2.90;99.90;;;;;;4925002;29;20178;-86
2021/12/07 00:52:49;;;;;;;33.58;15.07;;;2.80;99.90;;;;;;4925400;29;20080;-87
2021/12/07 00:55:21;;;;;;;33.70;14.85;;;2.80;99.90;;;;;;4935226;29;20024;-86
2021/12/07 00:57:52;;;;;;;27.73;13.43;;;2.90;99.90;;;;;;4893751;29;20112;-86
2021/12/07 01:00:20;;;;;;;36.05;14.80;;;2.80;99.90;;;;;;4911058;29;20059;-86
2021/12/07 01:02:46;;;;;;;32.78;15.18;;;2.90;99.90;;;;;;4929619;29;20031;-86
2021/12/07 01:05:17;;;;;;;33.28;14.80;;;2.80;99.90;;;;;;4934170;29;20097;-86
2021/12/07 01:26:40;;;;;;;34.25;15.15;;;2.80;99.90;;;;;;4911379;29;20055;-86
2021/12/07 01:29:06;;;;;;;35.10;16.20;;;2.80;99.90;;;;;;4928373;29;20024;-86
2021/12/07 01:31:46;;;;;;;33.42;15.60;;;2.80;99.90;;;;;;4913362;29;20059;-87
2021/12/07 01:48:03;;;;;;;36.67;15.82;;;2.70;99.90;;;;;;4939910;29;20020;-86
2021/12/07 02:00:45;;;;;;;37.25;15.85;;;2.80;99.90;;;;;;4942132;29;19918;-86
2021/12/07 02:03:11;;;;;;;35.63;15.35;;;2.80;99.90;;;;;;4926118;29;20101;-85
2021/12/07 02:05:37;;;;;;;38.88;16.63;;;2.80;99.90;;;;;;4942916;29;20036;-85
2021/12/07 02:08:03;;;;;;;37.20;16.30;;;2.80;99.90;;;;;;4910596;29;20032;-86
2021/12/07 02:10:32;;;;;;;35.35;16.27;;;2.80;99.90;;;;;;4922289;29;20062;-85
2021/12/07 02:14:15;;;;;;;33.05;15.25;;;2.80;99.90;;;;;;4923450;29;20105;-86
2021/12/07 02:15:58;;;;;;;32.17;14.60;;;2.80;99.90;;;;;;4925858;29;20472;-86
2021/12/07 02:18:26;;;;;;;33.17;15.10;;;2.80;99.90;;;;;;4899506;29;20572;-86
2021/12/07 02:20:52;;;;;;;36.67;15.75;;;2.80;99.90;;;;;;4915019;29;20039;-87
2021/12/07 02:23:18;;;;;;;34.17;14.70;;;2.80;99.90;;;;;;4923266;29;20036;-88
2021/12/07 02:25:45;;;;;;;40.60;16.83;;;2.90;99.90;;;;;;4920166;29;20090;-87
2021/12/07 02:28:14;;;;;;;41.90;16.63;;;2.80;99.90;;;;;;4917004;29;20036;-86
2021/12/07 02:30:43;;;;;;;34.10;15.20;;;2.90;99.90;;;;;;4900590;29;20038;-86
2021/12/07 02:33:09;;;;;;;39.55;17.38;;;2.90;99.90;;;;;;4915398;29;20402;-86
2021/12/07 02:35:37;;;;;;;38.55;16.30;;;2.90;99.90;;;;;;4911420;29;20650;-86
2021/12/07 02:38:04;;;;;;;38.67;16.50;;;2.90;99.90;;;;;;4918341;29;20084;-87
2021/12/07 02:40:33;;;;;;;36.42;15.98;;;2.90;99.90;;;;;;4924398;29;20032;-86
2021/12/07 02:43:00;;;;;;;32.67;15.13;;;2.90;99.90;;;;;;4938193;29;20038;-87
2021/12/07 02:45:28;;;;;;;36.97;15.77;;;2.90;99.90;;;;;;4919674;29;20036;-84
2021/12/07 02:47:54;;;;;;;39.13;15.70;;;2.80;99.90;;;;;;4918406;29;20432;-86
2021/12/07 02:50:20;;;;;;;39.60;16.33;;;2.80;99.90;;;;;;4917701;29;20040;-86
2021/12/07 02:52:47;;;;;;;30.90;14.85;;;2.80;99.90;;;;;;4921637;29;20035;-86
2021/12/07 02:55:14;;;;;;;43.53;17.30;;;2.80;99.90;;;;;;4927705;29;20032;-86
2021/12/07 02:57:42;;;;;;;34.90;15.45;;;2.80;99.90;;;;;;4909914;29;20480;-86
2021/12/07 03:00:17;;;;;;;38.65;17.13;;;2.80;99.90;;;;;;4908461;29;20051;-86
2021/12/07 03:02:52;;;;;;;36.97;15.10;;;2.80;99.90;;;;;;4901207;29;20040;-86
2021/12/07 03:06:15;;;;;;;36.97;15.43;;;2.80;99.90;;;;;;4909600;29;20381;-86
2021/12/07 03:27:34;;;;;;;37.10;15.60;;;2.70;99.90;;;;;;4924205;29;20020;-85
2021/12/07 03:30:01;;;;;;;43.85;16.48;;;2.70;99.90;;;;;;4923393;29;20028;-86
2021/12/07 03:32:30;;;;;;;35.70;14.60;;;2.70;99.90;;;;;;4925503;29;20036;-84
2021/12/07 03:34:56;;;;;;;35.35;15.40;;;2.70;99.90;;;;;;4923489;29;20095;-86
2021/12/07 03:37:22;;;;;;;37.05;15.85;;;2.70;99.90;;;;;;4923299;29;20049;-86
2021/12/07 03:39:49;;;;;;;36.65;15.50;;;2.70;99.90;;;;;;4922219;29;20051;-86
2021/12/07 03:42:16;;;;;;;35.10;16.38;;;2.70;99.90;;;;;;4905172;29;20032;-86
2021/12/07 03:44:42;;;;;;;41.58;17.85;;;2.80;99.90;;;;;;4906342;29;20040;-86
2021/12/07 03:47:09;;;;;;;36.92;16.23;;;2.70;99.90;;;;;;4918613;29;20028;-85
2021/12/07 03:49:34;;;;;;;36.17;15.25;;;2.70;99.90;;;;;;4914674;29;20028;-86
2021/12/07 03:52:00;;;;;;;36.83;17.35;;;2.80;99.90;;;;;;4933032;29;20054;-85
2021/12/07 03:54:26;;;;;;;36.15;15.73;;;2.70;99.90;;;;;;4916803;29;20392;-85
2021/12/07 03:56:52;;;;;;;37.50;16.08;;;2.80;99.90;;;;;;4923269;29;20044;-85
2021/12/07 03:59:19;;;;;;;38.78;16.52;;;2.80;99.90;;;;;;4923127;29;20080;-86
2021/12/07 04:01:45;;;;;;;33.70;15.90;;;2.80;99.90;;;;;;4920920;29;20091;-86
2021/12/07 04:04:12;;;;;;;39.20;17.30;;;2.80;99.90;;;;;;4939977;29;20023;-85
2021/12/07 04:06:38;;;;;;;43.63;17.05;;;2.80;99.90;;;;;;4923558;29;20028;-86
2021/12/07 04:09:05;;;;;;;36.92;15.73;;;2.80;99.90;;;;;;4922494;29;20091;-84
2021/12/07 04:11:32;;;;;;;35.40;16.15;;;2.80;99.90;;;;;;4909227;29;20044;-86
2021/12/07 04:13:58;;;;;;;36.58;15.25;;;2.80;99.90;;;;;;4922708;29;20020;-85
2021/12/07 04:16:27;;;;;;;38.22;15.73;;;2.80;99.90;;;;;;4923567;29;20048;-89
2021/12/07 04:18:55;;;;;;;41.40;17.67;;;2.80;99.90;;;;;;4920808;29;20024;-86
2021/12/07 04:21:22;;;;;;;41.33;16.63;;;2.90;99.90;;;;;;4920813;29;20036;-86
2021/12/07 04:23:48;;;;;;;37.45;15.85;;;2.80;99.90;;;;;;4922029;29;20103;-85
2021/12/07 04:26:14;;;;;;;42.75;17.33;;;2.80;99.90;;;;;;4936849;29;20052;-85
2021/12/07 04:28:41;;;;;;;40.38;17.38;;;2.80;99.90;;;;;;4918132;29;20020;-87
2021/12/07 04:31:08;;;;;;;37.22;16.52;;;2.80;99.90;;;;;;4919362;29;20039;-86
2021/12/07 04:33:34;;;;;;;40.05;16.23;;;2.80;99.90;;;;;;4914314;29;20028;-87
2021/12/07 04:36:01;;;;;;;39.42;16.70;;;2.80;99.90;;;;;;4919283;29;20028;-85
2021/12/07 04:38:27;;;;;;;44.38;18.15;;;2.80;99.90;;;;;;4938098;29;20020;-85
2021/12/07 04:40:54;;;;;;;46.15;18.15;;;2.80;99.90;;;;;;4921834;29;20084;-87
2021/12/07 04:43:21;;;;;;;39.53;17.13;;;2.80;99.90;;;;;;4916270;29;20028;-85
2021/12/07 04:46:00;;;;;;;40.42;17.63;;;2.80;99.90;;;;;;4934528;29;20032;-86
2021/12/07 04:59:07;;;;;;;39.65;16.90;;;2.80;99.90;;;;;;4934054;29;20024;-87
2021/12/07 05:01:33;;;;;;;40.10;17.40;;;2.70;99.90;;;;;;4916726;29;20032;-87
2021/12/07 05:04:06;;;;;;;43.25;17.52;;;2.70;99.90;;;;;;4935536;29;20040;-85
2021/12/07 05:06:34;;;;;;;43.92;17.73;;;2.70;99.90;;;;;;4934420;29;20100;-87
2021/12/07 05:09:28;;;;;;;38.53;17.00;;;2.70;99.90;;;;;;4932774;29;20039;-87
2021/12/07 05:12:17;;;;;;;46.42;18.55;;;2.60;99.90;;;;;;4935198;29;20131;-86
2021/12/07 05:14:40;;;;;;;43.22;18.35;;;2.60;99.90;;;;;;4941374;29;20052;-85
2021/12/07 05:38:30;;;;;;;45.20;18.65;;;2.60;99.90;;;;;;4940275;29;20039;-87
2021/12/07 05:40:56;;;;;;;50.03;18.65;;;2.60;99.90;;;;;;4942105;29;20016;-86
2021/12/07 05:43:22;;;;;;;43.38;17.83;;;2.50;99.90;;;;;;4941298;29;20064;-86
2021/12/07 05:45:48;;;;;;;43.33;18.55;;;2.50;99.90;;;;;;4941597;29;20012;-86
2021/12/07 05:48:14;;;;;;;36.85;16.95;;;2.50;99.90;;;;;;4908482;29;20036;-86
2021/12/07 05:50:41;;;;;;;49.53;19.48;;;2.60;99.90;;;;;;4923076;29;20044;-86
2021/12/07 05:53:09;;;;;;;48.50;18.83;;;2.60;99.90;;;;;;4923391;29;20091;-86
2021/12/07 05:55:35;;;;;;;41.45;18.38;;;2.60;99.90;;;;;;4940359;29;20075;-86
2021/12/07 05:58:02;;;;;;;48.33;19.30;;;2.60;99.90;;;;;;4924071;29;20020;-86
2021/12/07 06:00:33;;;;;;;45.45;18.10;;;2.70;99.90;;;;;;4908584;29;20020;-87
2021/12/07 06:03:01;;;;;;;46.67;19.10;;;2.70;99.90;;;;;;4941051;29;20036;-87
2021/12/07 06:05:28;;;;;;;47.28;19.23;;;2.70;99.90;;;;;;4937954;29;20032;-85
2021/12/07 06:07:55;;;;;;;44.50;17.75;;;2.70;99.90;;;;;;4937899;29;20044;-87
2021/12/07 06:10:21;;;;;;;46.13;19.00;;;2.70;99.90;;;;;;4930483;29;20036;-86
2021/12/07 06:12:49;;;;;;;42.25;18.02;;;2.70;99.90;;;;;;4932947;29;20025;-87
2021/12/07 06:15:20;;;;;;;40.08;17.10;;;2.70;99.90;;;;;;4932101;29;20020;-84
2021/12/07 06:17:47;;;;;;;46.22;17.80;;;2.70;99.90;;;;;;4931082;29;20040;-86
2021/12/07 06:20:13;;;;;;;43.10;18.20;;;2.70;99.90;;;;;;4935437;29;20040;-85
2021/12/07 06:22:39;;;;;;;44.67;18.83;;;2.70;99.90;;;;;;4941484;29;20028;-85
2021/12/07 06:25:06;;;;;;;43.53;18.10;;;2.70;99.90;;;;;;4994252;23;20062;-85
2021/12/07 06:27:32;;;;;;;44.53;18.48;;;2.70;99.90;;;;;;4971531;28;20050;-84
2021/12/07 06:29:58;;;;;;;41.28;17.92;;;2.70;99.90;;;;;;4968606;29;20023;-86
2021/12/07 06:32:25;;;;;;;41.58;18.23;;;2.70;99.90;;;;;;4969240;28;20519;-85
2021/12/07 06:34:51;;;;;;;39.95;16.67;;;2.70;99.90;;;;;;4967078;29;20055;-85
2021/12/07 06:37:17;;;;;;;41.53;17.98;;;2.80;99.90;;;;;;4963960;29;20030;-84
2021/12/07 06:39:43;;;;;;;38.95;17.08;;;2.70;99.90;;;;;;4963510;29;20395;-84
2021/12/07 06:42:09;;;;;;;45.60;17.10;;;2.70;99.90;;;;;;4963092;29;20046;-85
2021/12/07 06:44:35;;;;;;;40.63;17.38;;;2.70;99.90;;;;;;4965101;29;20031;-86
2021/12/07 06:47:01;;;;;;;41.80;17.58;;;2.70;99.90;;;;;;4953708;29;20062;-85
2021/12/07 06:49:27;;;;;;;46.15;17.98;;;2.70;99.90;;;;;;4956653;29;20022;-84
2021/12/07 06:51:53;;;;;;;38.25;16.63;;;2.70;99.90;;;;;;4970301;29;20039;-84
2021/12/07 06:54:19;;;;;;;47.38;17.80;;;2.80;99.90;;;;;;4966801;29;20031;-86
2021/12/07 06:56:45;;;;;;;43.00;18.27;;;2.80;99.90;;;;;;4969164;28;20479;-84
2021/12/07 06:59:11;;;;;;;40.55;16.92;;;2.80;99.90;;;;;;4949330;29;20019;-86
2021/12/07 07:01:37;;;;;;;44.45;18.70;;;2.80;99.90;;;;;;4964635;29;20160;-85
2021/12/07 07:04:03;;;;;;;46.00;18.88;;;2.80;99.90;;;;;;4949414;29;20583;-83
2021/12/07 07:06:29;;;;;;;45.20;17.85;;;2.80;99.90;;;;;;4973152;29;20107;-86
2021/12/07 07:08:55;;;;;;;46.42;18.40;;;2.80;99.90;;;;;;4976482;28;20015;-84
2021/12/07 07:11:22;;;;;;;46.33;18.70;;;2.70;99.90;;;;;;4971762;28;20027;-85
2021/12/07 07:13:49;;;;;;;43.28;18.63;;;2.80;99.90;;;;;;4972767;29;20023;-85
2021/12/07 07:16:15;;;;;;;43.65;18.90;;;2.80;99.90;;;;;;4977028;28;20039;-85
2021/12/07 07:18:41;;;;;;;48.25;18.75;;;2.80;99.90;;;;;;4970564;28;20031;-84
2021/12/07 07:21:08;;;;;;;42.28;18.13;;;2.80;99.90;;;;;;4967773;28;20402;-86
2021/12/07 07:23:34;;;;;;;41.25;17.13;;;2.70;99.90;;;;;;4970426;28;20031;-86
2021/12/07 07:26:00;;;;;;;42.88;18.25;;;2.70;99.90;;;;;;4969023;29;20039;-86
2021/12/07 07:28:28;;;;;;;39.97;17.85;;;2.70;99.90;;;;;;4968297;29;20031;-86
2021/12/07 07:30:54;;;;;;;42.90;18.08;;;2.70;99.90;;;;;;4970939;29;20031;-84
2021/12/07 07:33:20;;;;;;;50.72;19.08;;;2.70;99.90;;;;;;4971363;28;20064;-85
2021/12/07 07:35:47;;;;;;;48.20;18.55;;;2.60;99.90;;;;;;4971803;29;20050;-84
2021/12/07 07:38:15;;;;;;;46.40;19.40;;;2.70;99.90;;;;;;4970952;28;20027;-85
2021/12/07 07:40:44;;;;;;;46.50;19.00;;;2.70;99.90;;;;;;4967994;29;20035;-85
2021/12/07 07:43:11;;;;;;;44.30;18.58;;;2.70;99.90;;;;;;4968298;29;20046;-85
2021/12/07 07:45:49;;;;;;;42.42;17.83;;;2.80;99.90;;;;;;4969810;28;20026;-86
2021/12/07 07:48:16;;;;;;;48.63;18.98;;;2.90;99.90;;;;;;4969498;29;20066;-85
2021/12/07 07:50:43;;;;;;;46.00;19.92;;;3.00;99.90;;;;;;4968815;28;20104;-84
2021/12/07 07:53:09;;;;;;;41.08;17.23;;;3.00;99.90;;;;;;4971357;29;20475;-85
2021/12/07 07:55:38;;;;;;;42.55;18.48;;;3.00;99.90;;;;;;4971179;28;20031;-85
2021/12/07 07:58:04;;;;;;;49.15;20.02;;;3.00;99.90;;;;;;4969786;28;20023;-85
2021/12/07 08:00:30;;;;;;;50.00;19.58;;;3.00;99.90;;;;;;4953323;29;20031;-84
2021/12/07 08:02:56;;;;;;;45.15;19.40;;;3.00;99.90;;;;;;4968502;29;20063;-86
2021/12/07 08:05:22;;;;;;;46.75;19.05;;;3.10;99.90;;;;;;4968003;29;20066;-85
2021/12/07 08:07:48;;;;;;;42.03;18.27;;;3.10;99.90;;;;;;4965959;28;20032;-85
2021/12/07 08:10:16;;;;;;;43.33;18.85;;;3.20;99.90;;;;;;4964338;29;20038;-85
2021/12/07 08:12:42;;;;;;;40.78;18.30;;;3.30;99.90;;;;;;4966093;29;20049;-85
2021/12/07 08:15:09;;;;;;;47.22;20.63;;;3.50;99.90;;;;;;4966385;29;20027;-84
2021/12/07 08:17:35;;;;;;;41.88;18.83;;;3.80;99.90;;;;;;4950404;29;20042;-85
2021/12/07 08:20:04;;;;;;;52.67;22.80;;;4.10;99.90;;;;;;4959875;29;20011;-86
2021/12/07 08:22:31;;;;;;;44.83;19.88;;;4.60;99.90;;;;;;4971246;29;20103;-84
2021/12/07 08:24:57;;;;;;;42.47;18.02;;;5.00;99.90;;;;;;4971880;29;20023;-84
2021/12/07 08:27:24;;;;;;;42.03;18.83;;;6.00;99.90;;;;;;4969435;28;20043;-85
2021/12/07 08:29:50;;;;;;;43.40;18.67;;;6.70;99.90;;;;;;4969492;28;20043;-85
2021/12/07 08:32:16;;;;;;;39.22;17.10;;;7.50;99.90;;;;;;4973212;28;20035;-85
2021/12/07 08:34:42;;;;;;;40.90;19.05;;;7.90;99.90;;;;;;4977807;28;20148;-85
2021/12/07 08:37:09;;;;;;;44.35;18.83;;;8.50;99.90;;;;;;4977767;29;20035;-85
2021/12/07 08:39:35;;;;;;;36.45;17.45;;;9.00;99.90;;;;;;4978868;28;20082;-84
2021/12/07 08:42:02;;;;;;;41.28;19.35;;;9.00;99.90;;;;;;4977160;29;20035;-85
2021/12/07 08:44:28;;;;;;;35.33;17.30;;;9.50;99.90;;;;;;4977203;29;20023;-85
2021/12/07 08:46:54;;;;;;;36.72;18.13;;;10.00;99.70;;;;;;4978084;28;20051;-84
2021/12/07 08:49:21;;;;;;;36.95;17.35;;;10.50;98.60;;;;;;4978919;28;20031;-83
2021/12/07 08:51:48;;;;;;;38.63;18.35;;;11.30;96.90;;;;;;4980284;28;20054;-84
2021/12/07 08:59:36;;;;;;;33.05;17.58;;;11.80;95.70;;;;;;4981298;28;20235;-84
2021/12/07 09:00:01;;;;;;;41.00;18.05;;;12.00;94.20;;;;;;4978817;29;20074;-83
2021/12/07 09:02:27;;;;;;;33.70;17.27;;;12.10;93.70;;;;;;4980470;28;20062;-81
2021/12/07 09:04:53;;;;;;;33.55;16.98;;;12.20;93.50;;;;;;4979150;29;20027;-83
2021/12/07 09:07:21;;;;;;;34.13;17.55;;;12.40;92.90;;;;;;4978025;29;20024;-83
2021/12/07 09:09:47;;;;;;;32.95;17.30;;;12.70;92.20;;;;;;4973851;29;20058;-83
2021/12/07 09:12:15;;;;;;;34.35;16.42;;;12.60;92.00;;;;;;4972419;29;20023;-84
2021/12/07 09:14:42;;;;;;;33.83;16.02;;;12.40;91.80;;;;;;4967761;28;20093;-85
2021/12/07 09:17:10;;;;;;;32.92;15.98;;;12.00;92.00;;;;;;4966895;28;20020;-84
2021/12/07 09:19:37;;;;;;;35.47;16.48;;;11.10;92.80;;;;;;4965977;29;20418;-86
2021/12/07 09:22:03;;;;;;;31.95;16.42;;;10.00;94.20;;;;;;4964455;29;20031;-85
2021/12/07 09:24:29;;;;;;;35.40;16.33;;;9.40;95.00;;;;;;4963794;29;20031;-84
2021/12/07 09:26:55;;;;;;;30.42;15.20;;;9.00;95.90;;;;;;4965006;28;20078;-84
2021/12/07 09:29:22;;;;;;;29.08;14.65;;;9.50;95.30;;;;;;4963063;29;20036;-83
2021/12/07 09:31:48;;;;;;;31.35;14.80;;;10.30;94.20;;;;;;4964446;28;20514;-85
2021/12/07 09:34:17;;;;;;;32.97;15.25;;;10.60;93.90;;;;;;4963325;29;20107;-83
2021/12/07 09:36:43;;;;;;;34.83;16.20;;;10.30;94.00;;;;;;4964374;28;20033;-84
2021/12/07 09:39:12;;;;;;;33.05;16.65;;;9.80;94.70;;;;;;4964466;28;20038;-84
2021/12/07 09:41:39;;;;;;;37.80;16.60;;;9.70;95.20;;;;;;4964564;28;20071;-84
2021/12/07 09:44:06;;;;;;;32.70;16.50;;;9.60;95.20;;;;;;4963202;28;20074;-85
2021/12/07 09:46:31;;;;;;;35.67;16.30;;;9.70;95.30;;;;;;4948295;29;20039;-84
2021/12/07 09:48:58;;;;;;;35.17;16.90;;;9.70;95.20;;;;;;4968588;28;20031;-81
2021/12/07 09:51:26;;;;;;;30.98;15.48;;;9.30;95.60;;;;;;4978404;28;20047;-84
2021/12/07 09:53:55;;;;;;;33.05;16.08;;;9.00;96.00;;;;;;4978840;28;20094;-82
2021/12/07 09:56:22;;;;;;;39.17;17.80;;;8.90;96.20;;;;;;4979477;28;20019;-83
2021/12/07 09:58:50;;;;;;;35.50;17.08;;;9.00;96.70;;;;;;4979324;29;20026;-83
2021/12/07 10:01:17;;;;;;;33.53;16.77;;;9.60;96.30;;;;;;4977206;28;20027;-82
2021/12/07 10:03:43;;;;;;;38.00;17.17;;;10.10;95.40;;;;;;4972601;29;20469;-81
2021/12/07 10:06:09;;;;;;;40.30;17.55;;;10.10;95.00;;;;;;4973611;28;20371;-84
2021/12/07 10:08:35;;;;;;;35.30;18.02;;;9.60;95.60;;;;;;4971700;28;20035;-83
2021/12/07 10:11:04;;;;;;;39.88;18.02;;;9.00;96.30;;;;;;4972498;29;20027;-82
2021/12/07 10:13:31;;;;;;;37.15;17.15;;;8.70;96.90;;;;;;4972227;29;20095;-84
2021/12/07 10:15:59;;;;;;;35.35;17.20;;;8.40;97.40;;;;;;4964919;29;20027;-84
2021/12/07 10:18:28;;;;;;;37.25;17.17;;;8.60;97.30;;;;;;4976542;29;20031;-85
2021/12/07 10:21:00;;;;;;;32.90;16.63;;;8.70;97.30;;;;;;4975368;28;20067;-82
2021/12/07 10:24:01;;;;;;;33.65;17.08;;;8.80;97.40;;;;;;4974044;29;20031;-84
2021/12/07 10:26:34;;;;;;;31.67;16.25;;;8.70;97.50;;;;;;4962571;28;20125;-85
2021/12/07 10:29:08;;;;;;;38.65;18.48;;;8.30;98.00;;;;;;4972115;29;20051;-83
2021/12/07 10:31:41;;;;;;;42.63;17.75;;;8.10;98.40;;;;;;4969934;29;20035;-85
2021/12/07 10:34:15;;;;;;;40.35;18.95;;;8.00;99.00;;;;;;4970982;29;20047;-82
2021/12/07 10:36:49;;;;;;;33.88;16.92;;;7.80;99.30;;;;;;4972888;28;20027;-83
2021/12/07 10:39:23;;;;;;;36.88;15.63;;;7.50;99.50;;;;;;4964113;29;20031;-84
2021/12/07 10:41:57;;;;;;;38.45;16.02;;;7.10;99.90;;;;;;4964763;29;20046;-83
2021/12/07 10:44:32;;;;;;;42.00;18.35;;;7.00;99.90;;;;;;4960566;29;20035;-84
2021/12/07 10:47:00;;;;;;;;;;;7.00;99.90;;;;;;4974270;28;20023;-84
2021/12/07 10:49:32;;;;;;;31.88;16.65;;;6.90;99.90;;;;;;4980776;28;19901;-86
2021/12/07 10:52:12;;;;;;;37.42;17.25;;;7.00;99.90;;;;;;4963541;29;20031;-85
2021/12/07 10:55:00;;;;;;;38.08;17.77;;;6.90;99.90;;;;;;4958437;28;20043;-86
2021/12/07 10:57:43;;;;;;;37.75;17.73;;;6.90;99.90;;;;;;4949874;28;20065;-85
2021/12/07 11:00:18;;;;;;;40.53;17.98;;;6.80;99.90;;;;;;4980101;28;20041;-83
2021/12/07 11:02:54;;;;;;;41.25;17.30;;;6.70;99.90;;;;;;4980593;28;20047;-83
2021/12/07 11:05:27;;;;;;;36.92;16.98;;;6.70;99.90;;;;;;4979819;28;20027;-83
2021/12/07 11:08:06;;;;;;;35.47;16.50;;;6.80;99.90;;;;;;4974849;28;20055;-84
2021/12/07 11:10:34;;;;;;;37.05;17.98;;;6.80;99.90;;;;;;4961803;29;20027;-85
2021/12/07 11:15:41;;;;;;;43.03;17.40;;;6.90;99.90;;;;;;4960915;29;20038;-83
2021/12/07 11:18:10;;;;;;;34.42;16.20;;;7.20;99.90;;;;;;4965755;28;20019;-82
2021/12/07 11:20:37;;;;;;;35.78;17.38;;;7.50;99.90;;;;;;4973844;28;20056;-81
2021/12/07 11:23:12;;;;;;;36.08;17.45;;;7.60;99.90;;;;;;4979384;28;20024;-81
2021/12/07 11:29:39;;;;;;;34.03;17.00;;;7.60;99.90;;;;;;4979990;28;20123;-83
2021/12/07 11:31:29;;;;;;;36.03;17.60;;;7.60;99.90;;;;;;4979806;28;20030;-81
2021/12/07 11:34:06;;;;;;;38.92;16.95;;;7.50;99.90;;;;;;4979774;28;20024;-81
2021/12/07 11:36:44;;;;;;;35.60;16.63;;;7.20;99.90;;;;;;4979212;28;20019;-81
2021/12/07 11:39:25;;;;;;;37.45;18.17;;;7.00;99.90;;;;;;4979085;28;20031;-80
2021/12/07 11:42:05;;;;;;;33.67;16.85;;;6.70;99.90;;;;;;4979322;28;20079;-80
2021/12/07 11:44:35;;;;;;;37.00;16.92;;;6.60;99.90;;;;;;4978744;28;20042;-82
2021/12/07 11:47:04;;;;;;;35.47;16.90;;;6.50;99.90;;;;;;4976654;28;20054;-83
2021/12/07 11:49:34;;;;;;;34.70;16.17;;;6.50;99.90;;;;;;4973075;28;20026;-84
2021/12/07 11:52:04;;;;;;;38.35;18.58;;;6.50;99.90;;;;;;4978327;28;20015;-82
2021/12/07 11:54:34;;;;;;;37.08;17.60;;;6.40;99.90;;;;;;4978317;28;20055;-82
2021/12/07 11:57:03;;;;;;;37.65;18.27;;;6.40;99.90;;;;;;4978794;28;20027;-81
2021/12/07 11:59:29;;;;;;;32.72;16.35;;;6.40;99.90;;;;;;4978707;28;20077;-82
2021/12/07 12:01:55;;;;;;;38.28;17.13;;;6.50;99.90;;;;;;4973849;28;20047;-82
2021/12/07 12:04:21;;;;;;;37.17;17.27;;;6.70;99.90;;;;;;4966176;29;20027;-83
2021/12/07 12:06:50;;;;;;;37.00;16.90;;;6.80;99.90;;;;;;4967351;28;20125;-84
2021/12/07 12:09:17;;;;;;;35.85;16.75;;;7.00;99.90;;;;;;4977342;28;20027;-82
2021/12/07 12:11:48;;;;;;;33.72;15.30;;;7.10;99.90;;;;;;4978657;28;20102;-81
2021/12/07 12:14:46;;;;;;;29.70;15.05;;;7.10;99.90;;;;;;4977601;28;20034;-82
2021/12/07 12:17:45;;;;;;;28.35;14.60;;;7.20;99.90;;;;;;4978955;28;20035;-83
2021/12/07 12:20:36;;;;;;;30.23;14.70;;;7.20;99.90;;;;;;4961643;29;20023;-82
2021/12/07 12:23:02;;;;;;;33.90;15.75;;;7.00;99.90;;;;;;4968505;29;20039;-85
2021/12/07 12:25:30;;;;;;;33.30;14.50;;;6.80;99.90;;;;;;4978741;23;20071;-82
2021/12/07 12:27:57;;;;;;;29.75;14.50;;;6.50;99.90;;;;;;4962328;29;20020;-83
2021/12/07 12:30:33;;;;;;;34.05;15.70;;;6.40;99.90;;;;;;4936895;29;20019;-85
2021/12/07 12:33:25;;;;;;;34.85;15.82;;;6.20;99.90;;;;;;4955519;29;20031;-83
2021/12/07 12:35:54;;;;;;;33.25;15.52;;;6.00;99.90;;;;;;4954526;28;20051;-84
2021/12/07 12:38:24;;;;;;;35.83;16.77;;;6.00;99.90;;;;;;4955969;29;20034;-84
2021/12/07 12:41:09;;;;;;;33.65;16.50;;;6.00;99.90;;;;;;4960823;29;20047;-82
2021/12/07 12:43:53;;;;;;;41.85;16.05;;;5.90;99.90;;;;;;4944954;29;20036;-81
2021/12/07 12:46:22;;;;;;;33.67;16.37;;;6.00;99.90;;;;;;4967831;28;20087;-80
2021/12/07 12:48:54;;;;;;;34.08;16.95;;;6.10;99.90;;;;;;4961689;28;20030;-84
2021/12/07 12:51:20;;;;;;;39.17;16.25;;;6.20;99.90;;;;;;4978292;28;20074;-83
2021/12/07 12:53:48;;;;;;;37.47;16.90;;;6.30;99.90;;;;;;4978597;28;20015;-85
2021/12/07 12:56:36;;;;;;;41.38;17.80;;;6.30;99.90;;;;;;4978979;28;20023;-82
2021/12/07 12:59:05;;;;;;;39.78;16.65;;;6.30;99.90;;;;;;4978775;28;20054;-85
2021/12/07 13:01:43;;;;;;;34.00;17.42;;;6.30;99.90;;;;;;4961591;28;20054;-84
2021/12/07 13:04:28;;;;;;;39.42;18.35;;;6.30;99.90;;;;;;4976979;28;20026;-84
2021/12/07 13:07:23;;;;;;;38.25;19.13;;;6.30;99.90;;;;;;4970130;29;20039;-84
2021/12/07 13:09:54;;;;;;;40.58;18.48;;;6.20;99.90;;;;;;4963593;29;20039;-84
2021/12/07 13:12:26;;;;;;;44.92;18.98;;;6.30;99.90;;;;;;4969019;29;20038;-85
2021/12/07 13:14:52;;;;;;;41.22;19.38;;;6.40;99.90;;;;;;4976181;28;20031;-83
2021/12/07 13:17:30;;;;;;;38.75;18.10;;;6.50;99.90;;;;;;4962030;28;20043;-84
2021/12/07 13:20:20;;;;;;;41.95;19.05;;;6.60;99.90;;;;;;4982509;28;20051;-85
2021/12/07 13:23:07;;;;;;;42.47;19.75;;;6.50;99.90;;;;;;4982065;28;20039;-86
2021/12/07 13:25:52;;;;;;;37.15;19.40;;;6.50;99.90;;;;;;4981925;28;20042;-85
2021/12/07 13:28:26;;;;;;;42.08;19.42;;;6.50;99.90;;;;;;4981931;28;20035;-83
2021/12/07 13:31:00;;;;;;;36.40;18.33;;;6.40;99.90;;;;;;4982562;28;20051;-85
2021/12/07 13:33:26;;;;;;;34.67;17.55;;;6.40;99.90;;;;;;4966034;28;20044;-85
2021/12/07 13:35:53;;;;;;;39.55;17.58;;;6.30;99.90;;;;;;4963546;29;20035;-85
2021/12/07 13:38:28;;;;;;;37.35;17.55;;;6.10;99.90;;;;;;4973741;29;20035;-85
2021/12/07 13:41:19;;;;;;;39.90;18.58;;;5.90;99.90;;;;;;4972730;29;20035;-85
2021/12/07 13:43:49;;;;;;;39.15;19.63;;;5.90;99.90;;;;;;4979210;29;20078;-86
2021/12/07 13:46:17;;;;;;;42.13;19.35;;;5.90;99.90;;;;;;4979826;28;20024;-85
2021/12/07 13:48:45;;;;;;;42.55;19.20;;;5.80;99.90;;;;;;4980518;29;20046;-85
2021/12/07 13:51:14;;;;;;;35.40;17.58;;;5.80;99.90;;;;;;4979002;29;20088;-86
2021/12/07 13:53:42;;;;;;;38.60;18.15;;;5.80;99.90;;;;;;4977658;29;20031;-85
2021/12/07 13:56:09;;;;;;;35.97;17.83;;;5.70;99.90;;;;;;4959906;29;20035;-86
2021/12/07 13:58:53;;;;;;;35.25;17.35;;;5.70;99.90;;;;;;4961335;29;20074;-85
2021/12/07 14:01:19;;;;;;;37.88;16.92;;;5.60;99.90;;;;;;4972609;28;20023;-85
2021/12/07 14:03:46;;;;;;;35.38;16.40;;;5.60;99.90;;;;;;4958321;29;20027;-85
2021/12/07 14:06:13;;;;;;;39.00;16.63;;;5.60;99.90;;;;;;4974052;28;20035;-85
2021/12/07 14:08:42;;;;;;;34.75;16.98;;;5.50;99.90;;;;;;4958307;29;20074;-86
2021/12/07 14:11:14;;;;;;;38.00;18.40;;;5.50;99.90;;;;;;4938128;29;20028;-85
2021/12/07 14:13:49;;;;;;;41.25;18.88;;;5.50;99.90;;;;;;4951714;29;20050;-85
2021/12/07 14:16:21;;;;;;;42.60;18.90;;;5.50;99.90;;;;;;4967826;28;20031;-86
2021/12/07 14:18:47;;;;;;;42.00;19.75;;;5.50;99.90;;;;;;4973491;29;20274;-87
2021/12/07 14:21:13;;;;;;;43.83;19.98;;;5.40;99.90;;;;;;4976395;29;20091;-86
2021/12/07 14:23:54;;;;;;;40.97;19.35;;;5.30;99.90;;;;;;4974044;29;20026;-85
2021/12/07 14:26:25;;;;;;;36.08;18.38;;;5.20;99.90;;;;;;4958101;29;20055;-85
2021/12/07 14:29:03;;;;;;;43.65;19.83;;;5.20;99.90;;;;;;4948776;29;20058;-85
2021/12/07 14:31:44;;;;;;;40.50;19.25;;;5.10;99.90;;;;;;4932782;29;20035;-85